Time;durP1;ratioP1;P1;durP2;ratioP2;P2;SDS_P1;SDS_P2;PMS_P1;PMS_P2;Temp;Humidity;BMP_temperature;BMP_pressure;BME280_temperature;BME280_humidity;BME280_pressure;Samples;Min_cycle;Max_cycle;Signal;HPM_P1;HPM_P2
2022/04/01 00:01:13;;;;;;;26.60;9.58;;;;;;;12.50;100.00;99717.59;1718144;83;21482;-62
2022/04/01 00:03:40;;;;;;;37.93;10.13;;;;;;;12.52;100.00;99698.48;1717964;83;21033;-62
2022/04/01 00:06:07;;;;;;;32.33;10.68;;;;;;;12.56;100.00;99701.70;1691174;84;21095;-62
2022/04/01 00:08:35;;;;;;;35.17;9.98;;;;;;;12.47;100.00;99694.53;1672810;86;21098;-62
2022/04/01 00:11:03;;;;;;;28.98;9.90;;;;;;;12.52;100.00;99681.70;1672957;86;21063;-62
2022/04/01 00:13:30;;;;;;;27.20;9.85;;;;;;;12.49;100.00;99694.83;1691054;84;21075;-62
2022/04/01 00:15:59;;;;;;;26.80;10.50;;;;;;;12.49;100.00;99705.16;1690963;84;21099;-62
2022/04/01 00:18:26;;;;;;;33.42;9.98;;;;;;;12.52;100.00;99677.02;1673028;86;21059;-63
2022/04/01 00:20:56;;;;;;;35.33;10.38;;;;;;;12.49;100.00;99672.88;1717827;83;21030;-62
2022/04/01 00:23:23;;;;;;;27.48;10.13;;;;;;;12.47;100.00;99682.92;1717647;82;20986;-62
2022/04/01 00:25:53;;;;;;;31.52;10.20;;;;;;;12.41;100.00;99681.59;1731692;83;21061;-62
2022/04/01 00:28:20;;;;;;;32.50;10.48;;;;;;;12.40;100.00;99670.89;1732061;83;21020;-62
2022/04/01 00:30:50;;;;;;;29.92;9.50;;;;;;;12.39;100.00;99686.84;1732092;83;20993;-62
2022/04/01 00:33:17;;;;;;;28.57;9.98;;;;;;;12.39;100.00;99701.04;1731715;83;21029;-62
2022/04/01 00:35:45;;;;;;;35.78;10.28;;;;;;;12.46;100.00;99696.77;1732031;83;21048;-62
2022/04/01 00:38:13;;;;;;;33.13;10.45;;;;;;;12.44;100.00;99695.57;1731927;83;21005;-62
2022/04/01 00:40:41;;;;;;;30.72;10.80;;;;;;;12.47;100.00;99706.16;1732072;83;21029;-63
2022/04/01 00:43:09;;;;;;;30.50;9.95;;;;;;;12.49;100.00;99701.72;1732070;83;20989;-62
2022/04/01 00:45:36;;;;;;;27.75;10.20;;;;;;;12.51;100.00;99692.12;1705008;83;21048;-62
2022/04/01 00:48:05;;;;;;;26.87;9.93;;;;;;;12.51;100.00;99695.55;1731926;83;21091;-62
2022/04/01 00:50:34;;;;;;;25.45;9.28;;;;;;;12.49;100.00;99684.50;1731961;83;21013;-62
2022/04/01 00:53:01;;;;;;;26.45;9.68;;;;;;;12.47;100.00;99681.19;1731701;83;21053;-62
2022/04/01 00:55:30;;;;;;;32.95;10.00;;;;;;;12.52;100.00;99659.76;1731978;83;21085;-63
2022/04/01 00:57:58;;;;;;;28.83;9.63;;;;;;;12.55;100.00;99656.98;1731726;83;21059;-62
2022/04/01 01:00:28;;;;;;;32.13;9.88;;;;;;;12.54;100.00;99656.61;1731933;83;21020;-62
2022/04/01 01:02:57;;;;;;;32.88;9.85;;;;;;;12.52;100.00;99657.17;1732056;83;21005;-62
2022/04/01 01:05:25;;;;;;;24.95;10.53;;;;;;;12.50;100.00;99650.00;1731742;83;21025;-63
2022/04/01 01:07:54;;;;;;;28.17;9.58;;;;;;;12.49;100.00;99646.22;1731956;82;21060;-62
2022/04/01 01:10:21;;;;;;;34.75;10.85;;;;;;;12.49;100.00;99647.51;1731718;83;21020;-62
2022/04/01 01:12:51;;;;;;;32.38;11.10;;;;;;;12.43;100.00;99655.22;1731984;83;21005;-62
2022/04/01 01:15:19;;;;;;;26.68;9.55;;;;;;;12.41;100.00;99654.49;1731821;83;21032;-62
2022/04/01 01:17:49;;;;;;;30.82;10.08;;;;;;;12.36;100.00;99643.16;1731783;83;21029;-62
2022/04/01 01:20:17;;;;;;;28.60;10.10;;;;;;;12.31;100.00;99633.61;1732083;83;21004;-62
2022/04/01 01:22:47;;;;;;;32.17;9.80;;;;;;;12.29;100.00;99623.03;1731737;83;21084;-62
2022/04/01 01:25:16;;;;;;;29.15;9.60;;;;;;;12.27;100.00;99633.92;1731785;83;21009;-62
2022/04/01 01:27:44;;;;;;;30.55;9.80;;;;;;;12.27;100.00;99626.17;1731921;83;21016;-62
2022/04/01 01:30:13;;;;;;;28.73;9.28;;;;;;;12.23;100.00;99635.39;1731824;83;20986;-62
2022/04/01 01:32:41;;;;;;;22.80;9.30;;;;;;;12.18;100.00;99628.40;1731992;83;20989;-62
2022/04/01 01:35:10;;;;;;;31.82;10.35;;;;;;;12.18;100.00;99621.95;1731735;83;21497;-62
2022/04/01 01:37:38;;;;;;;36.68;10.05;;;;;;;12.16;100.00;99641.86;1732080;83;21501;-63
2022/04/01 01:40:09;;;;;;;28.07;9.03;;;;;;;12.17;100.00;99630.63;1731705;83;21037;-62
2022/04/01 01:42:37;;;;;;;25.00;9.53;;;;;;;12.19;100.00;99626.20;1732038;83;21060;-62
2022/04/01 01:45:06;;;;;;;25.27;8.93;;;;;;;12.18;100.00;99637.91;1732048;83;21032;-63
2022/04/01 01:47:34;;;;;;;30.00;9.50;;;;;;;12.20;100.00;99642.50;1732027;83;21008;-63
2022/04/01 01:55:33;;;;;;;34.10;9.10;;;;;;;12.28;100.00;99609.75;1731945;83;21081;-62
2022/04/01 01:58:03;;;;;;;29.27;9.10;;;;;;;12.28;100.00;99632.51;1731622;83;21025;-62
2022/04/01 02:00:31;;;;;;;25.77;9.50;;;;;;;12.27;100.00;99639.08;1731989;83;20993;-62
2022/04/01 02:02:59;;;;;;;27.67;8.80;;;;;;;12.28;100.00;99643.30;1732090;83;21001;-62
2022/04/01 02:05:26;;;;;;;34.10;9.00;;;;;;;12.31;100.00;99641.83;1731963;83;21033;-62
2022/04/01 02:07:54;;;;;;;31.57;8.70;;;;;;;12.30;100.00;99626.78;1732237;83;21077;-62
2022/04/01 02:10:25;;;;;;;27.25;8.83;;;;;;;12.31;100.00;99610.86;1731918;83;21018;-62
2022/04/01 02:12:54;;;;;;;30.45;9.13;;;;;;;12.29;100.00;99602.39;1732207;83;21069;-62
2022/04/01 02:15:24;;;;;;;29.85;9.25;;;;;;;12.32;100.00;99594.43;1732142;83;21502;-62
2022/04/01 02:17:55;;;;;;;25.43;8.88;;;;;;;12.33;100.00;99599.50;1730592;83;21013;-62
2022/04/01 02:20:23;;;;;;;28.50;9.58;;;;;;;12.32;100.00;99597.83;1732252;83;21036;-62
2022/04/01 02:22:53;;;;;;;29.18;9.55;;;;;;;12.36;100.00;99590.72;1731841;83;21101;-62
2022/04/01 02:25:19;;;;;;;24.43;8.78;;;;;;;12.40;100.00;99595.56;1731934;83;21025;-63
2022/04/01 02:27:47;;;;;;;28.25;9.08;;;;;;;12.46;100.00;99586.59;1731870;83;21025;-63
2022/04/01 02:30:15;;;;;;;25.65;8.88;;;;;;;12.51;100.00;99597.89;1731857;83;21009;-63
2022/04/01 02:32:49;;;;;;;27.22;9.03;;;;;;;12.53;100.00;99605.92;1732084;83;20977;-62
2022/04/01 02:35:24;;;;;;;29.85;9.40;;;;;;;12.54;100.00;99608.03;1731304;83;21048;-62
2022/04/01 02:37:51;;;;;;;28.95;8.78;;;;;;;12.55;99.95;99600.64;1732122;83;21482;-62
2022/04/01 02:40:21;;;;;;;25.95;8.68;;;;;;;12.55;99.60;99600.20;1731817;83;21021;-62
2022/04/01 02:42:53;;;;;;;26.52;8.95;;;;;;;12.58;99.61;99599.97;1732099;83;21034;-62
2022/04/01 02:45:24;;;;;;;31.95;8.80;;;;;;;12.58;99.50;99598.68;1732149;83;21009;-62
2022/04/01 02:47:52;;;;;;;30.80;8.48;;;;;;;12.58;99.30;99601.73;1732145;83;21013;-62
2022/04/01 02:50:20;;;;;;;28.00;9.03;;;;;;;12.56;99.07;99604.89;1732141;83;21044;-62
2022/04/01 02:52:48;;;;;;;26.02;8.30;;;;;;;12.63;98.74;99613.86;1731864;83;21052;-63
2022/04/01 02:55:15;;;;;;;25.68;8.68;;;;;;;12.57;98.86;99607.38;1732144;83;21021;-63
2022/04/01 02:57:44;;;;;;;33.70;8.93;;;;;;;12.49;99.11;99613.51;1731933;83;21077;-62
2022/04/01 03:00:21;;;;;;;32.28;9.23;;;;;;;12.59;98.76;99602.08;1732168;83;21025;-62
2022/04/01 03:02:43;;;;;;;32.45;8.78;;;;;;;12.56;98.77;99597.96;1731027;82;21043;-62
2022/04/01 03:05:12;;;;;;;31.30;9.03;;;;;;;12.58;99.13;99597.86;1731928;83;21029;-62
2022/04/01 03:07:40;;;;;;;27.48;8.13;;;;;;;12.55;99.25;99599.34;1732124;83;21089;-63
2022/04/01 03:10:09;;;;;;;24.98;8.40;;;;;;;12.54;99.38;99592.08;1731900;83;21063;-62
2022/04/01 03:12:38;;;;;;;25.50;8.35;;;;;;;12.50;99.63;99582.06;1731957;83;21484;-62
2022/04/01 03:15:09;;;;;;;27.32;8.63;;;;;;;12.42;100.00;99587.73;1730280;83;20973;-62
2022/04/01 03:17:58;;;;;;;27.52;8.15;;;;;;;12.36;100.00;99582.98;1731876;83;21048;-62
2022/04/01 03:20:29;;;;;;;29.10;8.40;;;;;;;12.40;100.00;99574.10;1732224;83;21009;-61
2022/04/01 03:22:58;;;;;;;29.82;8.90;;;;;;;12.32;100.00;99567.33;1731785;83;21494;-61
2022/04/01 03:25:32;;;;;;;23.67;8.30;;;;;;;12.29;100.00;99572.72;1724237;83;21029;-61
2022/04/01 03:28:18;;;;;;;29.50;9.38;;;;;;;12.25;100.00;99564.78;1717821;83;21007;-61
2022/04/01 03:30:50;;;;;;;27.07;8.43;;;;;;;12.21;100.00;99577.91;1718048;83;21066;-61
2022/04/01 03:33:17;;;;;;;28.35;8.13;;;;;;;12.19;100.00;99573.31;1717869;83;21037;-62
2022/04/01 03:35:46;;;;;;;26.73;8.45;;;;;;;12.19;100.00;99578.94;1718092;83;21045;-61
2022/04/01 03:38:15;;;;;;;33.67;9.50;;;;;;;12.25;100.00;99572.52;1690908;84;21047;-62
2022/04/01 03:40:49;;;;;;;35.80;9.08;;;;;;;12.26;100.00;99568.56;1675158;86;21104;-61
2022/04/01 03:43:17;;;;;;;29.52;8.33;;;;;;;12.28;100.00;99577.50;1675194;86;21024;-61
2022/04/01 03:45:48;;;;;;;25.10;7.97;;;;;;;12.32;100.00;99571.20;1689284;85;21089;-62
2022/04/01 03:48:25;;;;;;;22.50;8.18;;;;;;;12.41;99.76;99558.99;1717692;83;21514;-61
2022/04/01 03:50:56;;;;;;;27.52;8.48;;;;;;;12.53;99.09;99550.42;1690950;84;21555;-62
2022/04/01 03:53:30;;;;;;;27.42;8.48;;;;;;;12.57;98.24;99538.95;1672932;86;21621;-62
2022/04/01 03:56:02;;;;;;;26.10;7.70;;;;;;;12.62;97.50;99543.33;1719476;83;20986;-61
2022/04/01 03:58:48;;;;;;;34.45;8.38;;;;;;;12.68;96.99;99537.40;1717999;83;21061;-60
2022/04/01 04:01:36;;;;;;;29.32;8.65;;;;;;;12.74;96.75;99527.47;1691097;85;21059;-60
2022/04/01 04:04:05;;;;;;;31.02;7.95;;;;;;;12.80;96.21;99536.55;1691114;85;21019;-61
2022/04/01 04:06:34;;;;;;;28.57;9.25;;;;;;;12.85;95.79;99549.14;1673103;86;21090;-61
2022/04/01 04:09:03;;;;;;;28.20;8.25;;;;;;;12.87;95.22;99562.30;1667145;85;21059;-61
2022/04/01 04:11:34;;;;;;;24.90;7.65;;;;;;;12.96;94.13;99555.70;1673017;86;21046;-60
2022/04/01 04:14:06;;;;;;;30.35;8.20;;;;;;;12.97;94.04;99556.86;1690956;84;21039;-61
2022/04/01 04:16:47;;;;;;;24.40;7.33;;;;;;;13.03;93.18;99549.98;1672878;86;21071;-60
2022/04/01 04:19:27;;;;;;;27.93;7.72;;;;;;;13.10;92.80;99549.11;1691059;84;21038;-60
2022/04/01 04:22:13;;;;;;;28.02;7.97;;;;;;;13.15;92.24;99547.48;1691143;85;21504;-60
2022/04/01 04:24:58;;;;;;;30.52;8.08;;;;;;;13.16;91.99;99543.98;1672686;85;21137;-61
2022/04/01 04:27:29;;;;;;;27.07;8.38;;;;;;;13.26;91.15;99543.69;1698795;84;21054;-61
2022/04/01 04:30:08;;;;;;;;;;;;;;;13.30;90.77;99525.77;1734690;83;21036;-61
2022/04/01 04:32:42;;;;;;;31.52;8.10;;;;;;;13.36;90.28;99536.12;1729779;83;20377;-61
2022/04/01 04:35:10;;;;;;;33.20;8.35;;;;;;;13.40;89.60;99522.88;1732073;83;21525;-61
2022/04/01 04:37:46;;;;;;;28.35;8.08;;;;;;;13.45;88.75;99518.67;1732113;83;21024;-61
2022/04/01 04:40:17;;;;;;;30.65;7.92;;;;;;;13.49;88.03;99530.44;1731843;83;21037;-61
2022/04/01 04:42:50;;;;;;;27.20;7.97;;;;;;;13.51;87.95;99528.57;1732126;83;21001;-61
2022/04/01 04:45:19;;;;;;;28.75;7.87;;;;;;;13.63;87.33;99523.80;1731976;83;20989;-61
2022/04/01 04:47:49;;;;;;;26.00;7.12;;;;;;;13.62;86.68;99509.68;1732520;83;21073;-61
2022/04/01 04:50:18;;;;;;;33.92;8.68;;;;;;;13.66;86.49;99514.98;1731844;83;21098;-62
2022/04/01 04:52:49;;;;;;;29.20;7.78;;;;;;;13.81;85.09;99511.77;1731907;83;21047;-61
2022/04/01 04:55:19;;;;;;;24.27;7.28;;;;;;;13.85;83.98;99512.34;1732120;83;21012;-61
2022/04/01 04:57:57;;;;;;;34.92;8.55;;;;;;;13.99;83.71;99526.38;1720583;83;21030;-61
2022/04/01 05:00:25;;;;;;;29.25;7.62;;;;;;;14.09;82.49;99520.91;1732075;83;21028;-61
2022/04/01 05:03:12;;;;;;;25.17;7.60;;;;;;;14.12;81.59;99507.72;1730391;83;21053;-61
2022/04/01 05:05:47;;;;;;;31.62;7.72;;;;;;;14.31;80.93;99514.91;1732110;83;20973;-61
2022/04/01 05:09:00;;;;;;;30.15;7.35;;;;;;;14.29;80.43;99510.80;1727903;83;21033;-61
2022/04/01 05:12:01;;;;;;;23.30;7.50;;;;;;;14.44;80.05;99509.66;1732075;83;21042;-61
2022/04/01 05:15:02;;;;;;;29.42;7.58;;;;;;;14.49;79.03;99504.92;1727317;83;21061;-61
2022/04/01 05:17:36;;;;;;;28.40;7.70;;;;;;;14.53;78.51;99502.94;1731895;83;21025;-61
2022/04/01 05:20:15;;;;;;;28.92;7.80;;;;;;;14.54;78.83;99498.94;1729278;83;21048;-61
2022/04/01 05:23:09;;;;;;;32.45;7.90;;;;;;;14.68;78.08;99500.95;1731259;83;21048;-61
2022/04/01 05:25:55;;;;;;;27.80;7.53;;;;;;;14.60;77.56;99502.38;1731867;83;21084;-61
2022/04/01 05:28:52;;;;;;;27.25;6.95;;;;;;;14.76;76.33;99508.95;1731860;83;21032;-61
2022/04/01 05:31:51;;;;;;;23.92;7.30;;;;;;;14.85;76.24;99497.08;1732043;83;21045;-61
2022/04/01 05:34:47;;;;;;;28.75;7.35;;;;;;;14.99;75.40;99508.48;1717407;83;21025;-61
2022/04/01 05:37:18;;;;;;;28.92;7.08;;;;;;;15.21;74.95;99513.61;1731967;83;21009;-61
2022/04/01 05:39:47;;;;;;;25.40;7.58;;;;;;;15.41;74.43;99507.31;1731949;83;21521;-61
2022/04/01 05:42:18;;;;;;;29.55;7.33;;;;;;;15.46;73.93;99501.27;1731947;83;21000;-61
2022/04/01 05:44:52;;;;;;;33.60;8.08;;;;;;;15.57;73.08;99502.98;1731523;83;20985;-61
2022/04/01 05:47:24;;;;;;;28.27;7.03;;;;;;;15.55;73.47;99506.18;1732054;83;20994;-61
2022/04/01 05:49:57;;;;;;;24.92;7.40;;;;;;;15.52;73.13;99498.19;1731740;83;21064;-61
2022/04/01 05:52:24;;;;;;;33.88;7.35;;;;;;;15.65;72.32;99494.59;1732016;83;21013;-61
2022/04/01 05:54:52;;;;;;;27.45;7.72;;;;;;;15.79;71.45;99486.08;1731731;83;21033;-61
2022/04/01 05:57:20;;;;;;;31.35;7.22;;;;;;;15.89;71.22;99486.12;1705011;83;21056;-61
2022/04/01 05:59:48;;;;;;;22.48;6.00;;;;;;;15.99;71.27;99488.78;1731981;83;21028;-61
2022/04/01 06:02:54;;;;;;;25.25;7.78;;;;;;;16.25;70.45;99487.09;1731697;83;21029;-62
2022/04/01 06:05:56;;;;;;;27.32;7.30;;;;;;;16.43;69.92;99498.52;1718029;83;21081;-62
2022/04/01 06:08:44;;;;;;;30.57;7.22;;;;;;;16.43;68.26;99499.82;1704720;83;20985;-62
2022/04/01 06:11:43;;;;;;;21.95;6.65;;;;;;;16.49;68.69;99501.89;1682163;83;21070;-61
2022/04/01 06:14:56;;;;;;;30.65;6.95;;;;;;;16.61;68.20;99507.83;1696011;85;21075;-61
2022/04/01 06:17:44;;;;;;;31.05;7.35;;;;;;;16.82;68.09;99514.28;1694390;84;21088;-61
2022/04/01 06:20:16;;;;;;;31.02;6.50;;;;;;;16.96;67.62;99507.41;1676150;86;21071;-62
2022/04/01 06:22:50;;;;;;;30.23;6.75;;;;;;;16.92;66.96;99512.53;1699809;84;21003;-61
2022/04/01 06:25:20;;;;;;;;;;;;;;;16.85;66.92;99511.44;1670275;84;21047;-61
2022/04/01 06:27:53;;;;;;;28.87;7.22;;;;;;;16.86;67.41;99497.47;1718128;83;20101;-61
2022/04/01 06:30:22;;;;;;;33.00;7.20;;;;;;;16.83;67.25;99487.36;1715538;83;21015;-61
2022/04/01 06:33:03;;;;;;;30.40;7.58;;;;;;;16.90;67.70;99484.55;1711916;83;21059;-61
2022/04/01 06:35:38;;;;;;;28.73;7.12;;;;;;;17.02;67.02;99484.78;1699412;84;21071;-62
2022/04/01 06:38:12;;;;;;;27.50;6.60;;;;;;;17.10;66.87;99474.20;1731952;83;21016;-62
2022/04/01 06:40:50;;;;;;;27.22;7.95;;;;;;;17.17;66.66;99473.98;1702830;83;21109;-61
2022/04/01 06:43:19;;;;;;;31.80;7.20;;;;;;;17.30;66.37;99473.74;1694329;83;21017;-62
2022/04/01 06:46:06;;;;;;;24.75;6.35;;;;;;;17.40;65.85;99468.06;1692068;84;21019;-62
2022/04/01 06:48:40;;;;;;;;;;;;;;;17.46;66.29;99458.41;1692428;84;21088;-61
2022/04/01 06:51:17;;;;;;;31.80;7.62;;;;;;;17.47;66.85;99461.82;1662084;86;20101;-61
2022/04/01 06:54:02;;;;;;;31.35;7.60;;;;;;;17.60;66.70;99461.08;1701134;84;21604;-61
2022/04/01 06:56:50;;;;;;;40.08;8.38;;;;;;;17.58;66.72;99472.92;1699319;84;21092;-61
2022/04/01 06:59:18;;;;;;;28.67;7.50;;;;;;;17.60;66.68;99467.58;1699700;84;21075;-61
2022/04/01 07:01:45;;;;;;;27.60;7.85;;;;;;;17.61;66.31;99453.11;1701184;84;21008;-60
2022/04/01 07:04:14;;;;;;;32.93;8.05;;;;;;;17.65;66.73;99439.34;1699454;84;21536;-64
2022/04/01 07:06:43;;;;;;;31.20;7.72;;;;;;;17.65;66.44;99446.34;1699480;84;21520;-61
2022/04/01 07:09:12;;;;;;;30.37;8.43;;;;;;;17.47;66.72;99443.61;1699115;84;21068;-61
2022/04/01 07:11:40;;;;;;;27.73;7.33;;;;;;;17.57;67.20;99461.34;1699415;84;21056;-61
2022/04/01 07:14:09;;;;;;;32.00;7.00;;;;;;;17.55;67.31;99465.86;1701115;84;21004;-61
2022/04/01 07:16:39;;;;;;;31.12;7.37;;;;;;;17.74;67.20;99473.66;1699237;84;21061;-61
2022/04/01 07:19:06;;;;;;;27.70;7.45;;;;;;;17.74;67.10;99469.75;1699568;84;21631;-61
2022/04/01 07:21:35;;;;;;;30.95;7.40;;;;;;;17.81;67.59;99477.33;1699438;84;21060;-61
2022/04/01 07:24:05;;;;;;;28.67;6.55;;;;;;;17.84;67.47;99463.23;1699649;84;21091;-61
2022/04/01 07:26:32;;;;;;;36.75;7.83;;;;;;;17.82;68.15;99462.52;1694546;84;21021;-61
2022/04/01 07:29:01;;;;;;;32.05;7.90;;;;;;;17.97;68.48;99461.17;1671520;86;21512;-63
2022/04/01 07:34:21;;;;;;;34.98;8.38;;;;;;;18.13;67.69;99464.48;1689449;84;21068;-61
2022/04/01 07:36:44;;;;;;;37.80;7.25;;;;;;;18.22;67.14;99458.90;1689702;84;21079;-62
2022/04/01 07:39:11;;;;;;;44.05;7.55;;;;;;;18.23;66.91;99447.53;1689544;84;21032;-62
2022/04/01 07:41:39;;;;;;;34.30;7.97;;;;;;;18.38;67.33;99446.57;1689429;85;21069;-61
2022/04/01 07:44:07;;;;;;;35.78;7.60;;;;;;;18.32;67.25;99438.84;1688648;84;21068;-62
2022/04/01 07:46:35;;;;;;;31.05;7.42;;;;;;;18.35;67.32;99435.96;1688569;85;21580;-63
2022/04/01 07:49:21;;;;;;;36.93;7.97;;;;;;;18.64;67.61;99440.20;1688751;85;21537;-62
2022/04/01 07:51:50;;;;;;;29.70;7.25;;;;;;;18.83;66.70;99446.30;1688717;84;21063;-62
2022/04/01 07:54:19;;;;;;;37.10;8.38;;;;;;;19.07;66.93;99449.16;1688568;84;21119;-62
2022/04/01 07:56:47;;;;;;;37.42;8.43;;;;;;;18.96;66.56;99438.95;1688533;85;21097;-62
2022/04/01 07:59:19;;;;;;;43.38;8.33;;;;;;;19.10;66.76;99435.83;1688535;85;21132;-62
2022/04/01 08:01:45;;;;;;;37.30;8.08;;;;;;;19.19;66.44;99422.36;1688869;84;21319;-62
2022/04/01 08:04:13;;;;;;;39.20;7.60;;;;;;;19.19;66.28;99428.39;1688663;85;21076;-62
2022/04/01 08:06:40;;;;;;;37.15;7.97;;;;;;;19.21;66.56;99417.33;1688899;84;21029;-62
2022/04/01 08:09:27;;;;;;;36.93;7.85;;;;;;;19.37;66.68;99425.78;1688426;85;22158;-62
2022/04/01 08:11:55;;;;;;;34.45;7.20;;;;;;;19.38;66.38;99417.45;1688545;85;21096;-62
2022/04/01 08:14:43;;;;;;;32.90;7.08;;;;;;;19.53;66.36;99423.78;1688738;85;21080;-62
2022/04/01 08:17:12;;;;;;;34.40;8.25;;;;;;;19.63;66.00;99415.87;1688758;84;21087;-61
2022/04/01 08:19:44;;;;;;;33.95;7.17;;;;;;;19.76;66.11;99414.98;1688661;84;21601;-61
2022/04/01 08:22:11;;;;;;;32.93;7.60;;;;;;;19.81;66.39;99397.58;1689351;84;21532;-63
2022/04/01 08:24:57;;;;;;;36.55;7.78;;;;;;;19.97;65.49;99402.05;1689494;85;21084;-63
2022/04/01 08:27:25;;;;;;;38.35;7.15;;;;;;;19.98;64.99;99401.90;1698846;84;21502;-62
2022/04/01 08:29:59;;;;;;;30.80;7.33;;;;;;;19.99;65.49;99402.70;1703086;84;21064;-62
2022/04/01 08:32:23;;;;;;;34.15;8.13;;;;;;;20.13;65.77;99413.06;1659639;86;21512;-63
2022/04/01 08:34:52;;;;;;;34.13;7.83;;;;;;;20.60;64.59;99407.42;1645380;86;21069;-62
2022/04/01 08:37:21;;;;;;;33.00;7.30;;;;;;;20.72;63.51;99408.75;1588297;90;21093;-62
2022/04/01 08:39:48;;;;;;;41.20;8.40;;;;;;;20.88;63.44;99402.71;1636318;86;21034;-62
2022/04/01 08:42:16;;;;;;;40.43;7.62;;;;;;;20.99;62.93;99401.11;1698975;84;21089;-63
2022/04/01 08:44:46;;;;;;;43.30;8.05;;;;;;;20.92;62.77;99397.98;1696215;83;20976;-62
2022/04/01 08:47:13;;;;;;;33.50;7.92;;;;;;;20.97;62.78;99383.45;1703665;84;21520;-62
2022/04/01 08:49:42;;;;;;;27.45;7.08;;;;;;;20.91;62.49;99390.63;1612902;88;21032;-62
2022/04/01 08:52:10;;;;;;;40.90;7.62;;;;;;;21.09;62.66;99387.06;1679135;84;21028;-63
2022/04/01 08:55:05;;;;;;;29.07;6.97;;;;;;;21.23;62.18;99391.64;1661389;86;21675;-62
2022/04/01 08:57:43;;;;;;;38.38;7.53;;;;;;;21.35;61.18;99381.16;1653294;86;21000;-62
2022/04/01 09:00:22;;;;;;;43.17;7.70;;;;;;;21.41;61.32;99383.59;1695036;83;21006;-63
2022/04/01 09:03:06;;;;;;;31.60;7.03;;;;;;;21.66;60.39;99380.49;1691160;84;20998;-61
2022/04/01 09:05:35;;;;;;;30.65;7.33;;;;;;;21.59;60.12;99373.80;1689793;84;21516;-62
2022/04/01 09:08:06;;;;;;;34.53;7.78;;;;;;;21.58;59.81;99380.51;1690323;84;20988;-61
2022/04/01 09:11:02;;;;;;;27.82;6.62;;;;;;;21.67;60.09;99389.16;1694313;84;20999;-61
2022/04/01 09:13:33;;;;;;;27.75;7.35;;;;;;;21.79;59.34;99379.96;1688238;85;21056;-61
2022/04/01 09:16:02;;;;;;;41.53;7.33;;;;;;;22.08;59.03;99371.53;1691511;84;21003;-62
2022/04/01 09:18:49;;;;;;;29.07;6.87;;;;;;;22.23;58.43;99376.87;1692277;84;21066;-62
2022/04/01 09:21:18;;;;;;;31.25;7.78;;;;;;;22.47;58.45;99370.72;1637932;87;21024;-63
2022/04/01 09:23:48;;;;;;;33.75;7.25;;;;;;;22.62;58.35;99379.16;1663888;85;21016;-62
2022/04/01 09:26:23;;;;;;;29.57;7.70;;;;;;;22.52;56.99;99367.07;1676814;84;22601;-64
2022/04/01 09:28:52;;;;;;;40.20;7.60;;;;;;;22.31;56.85;99365.56;1688080;84;21511;-62
2022/04/01 09:31:22;;;;;;;33.70;7.40;;;;;;;22.05;57.59;99364.00;1687893;84;21015;-62
2022/04/01 09:33:54;;;;;;;30.75;6.67;;;;;;;21.97;57.58;99356.17;1686748;84;21017;-62
2022/04/01 09:36:42;;;;;;;37.88;7.50;;;;;;;22.14;57.65;99352.98;1688397;84;21065;-62
2022/04/01 09:39:16;;;;;;;34.67;7.08;;;;;;;22.38;57.26;99343.73;1682103;85;21484;-61
2022/04/01 09:41:58;;;;;;;37.83;7.87;;;;;;;22.56;56.78;99354.44;1619024;88;21482;-62
2022/04/01 09:44:32;;;;;;;30.55;6.50;;;;;;;22.81;56.17;99359.05;1575847;90;21127;-61
2022/04/01 09:47:07;;;;;;;39.10;7.50;;;;;;;23.09;55.19;99352.77;1658071;84;21002;-62
2022/04/01 09:49:54;;;;;;;39.63;7.60;;;;;;;23.07;54.68;99350.81;1698746;84;21359;-62
2022/04/01 09:52:41;;;;;;;28.67;6.67;;;;;;;23.08;55.40;99344.58;1682057;85;21034;-62
2022/04/01 09:55:10;;;;;;;33.63;6.60;;;;;;;23.12;54.36;99349.80;1682611;85;21028;-63
2022/04/01 09:57:39;;;;;;;29.18;7.03;;;;;;;23.07;54.33;99342.94;1591719;90;21047;-62
2022/04/01 10:00:09;;;;;;;39.10;7.50;;;;;;;23.22;54.10;99349.55;1657143;85;21052;-63
2022/04/01 10:02:39;;;;;;;34.53;7.45;;;;;;;23.34;53.94;99351.26;1682271;85;20971;-63
2022/04/01 10:05:09;;;;;;;39.58;7.22;;;;;;;23.44;53.22;99352.29;1651306;87;21474;-61
2022/04/01 10:07:58;;;;;;;34.18;6.65;;;;;;;23.45;53.46;99336.36;1686978;84;21122;-62
2022/04/01 10:10:28;;;;;;;33.18;7.53;;;;;;;23.32;53.66;99336.98;1652392;86;21007;-62
2022/04/01 10:13:06;;;;;;;34.13;7.10;;;;;;;23.40;53.20;99340.84;1585141;89;21105;-63
2022/04/01 10:15:37;;;;;;;31.17;6.87;;;;;;;23.45;53.53;99335.55;1636918;86;21047;-62
2022/04/01 10:18:07;;;;;;;34.53;6.60;;;;;;;23.57;53.08;99326.22;1677197;84;20958;-63
2022/04/01 10:20:55;;;;;;;36.48;6.70;;;;;;;23.73;52.66;99327.86;1698201;84;21053;-61
2022/04/01 10:23:26;;;;;;;42.98;7.42;;;;;;;23.89;52.63;99340.84;1689765;84;21537;-63
2022/04/01 10:26:13;;;;;;;44.33;7.75;;;;;;;23.82;52.35;99339.12;1689448;84;21478;-62
2022/04/01 10:28:59;;;;;;;42.00;7.37;;;;;;;23.77;51.64;99348.36;1690043;84;21060;-62
2022/04/01 10:31:26;;;;;;;33.67;7.70;;;;;;;23.89;52.20;99348.72;1688965;84;21340;-62
2022/04/01 10:33:54;;;;;;;44.27;7.67;;;;;;;23.99;51.48;99351.89;1688280;84;21060;-62
2022/04/01 10:36:26;;;;;;;45.03;7.33;;;;;;;23.80;51.53;99344.55;1687236;84;21027;-62
2022/04/01 10:39:06;;;;;;;40.70;7.92;;;;;;;23.68;51.76;99330.20;1688676;83;21007;-62
2022/04/01 10:41:35;;;;;;;41.13;7.17;;;;;;;23.54;51.76;99327.41;1642486;87;21057;-62
2022/04/01 10:44:06;;;;;;;49.60;7.90;;;;;;;23.47;51.34;99350.63;1678265;84;21071;-62
2022/04/01 10:46:43;;;;;;;38.20;7.47;;;;;;;23.42;51.24;99347.71;1688213;84;21039;-63
2022/04/01 10:52:21;;;;;;;34.85;7.12;;;;;;;23.28;50.89;99331.77;1689809;84;21003;-63
2022/04/01 10:55:05;;;;;;;39.80;7.40;;;;;;;23.56;51.43;99347.75;1689433;84;21496;-63
2022/04/01 10:57:45;;;;;;;39.58;8.13;;;;;;;23.64;50.65;99328.94;1689233;84;20976;-62
2022/04/01 11:00:33;;;;;;;40.20;7.55;;;;;;;23.71;50.70;99316.72;1693360;84;21035;-62
2022/04/01 11:03:23;;;;;;;41.28;7.90;;;;;;;23.93;50.35;99313.70;1677761;84;21053;-63
2022/04/01 11:05:50;;;;;;;48.00;8.08;;;;;;;24.05;50.53;99315.33;1673899;86;21075;-62
2022/04/01 11:08:21;;;;;;;40.08;7.87;;;;;;;24.02;49.78;99316.52;1659874;86;21514;-62
2022/04/01 11:11:09;;;;;;;39.30;7.45;;;;;;;23.81;49.20;99302.02;1673750;85;21529;-62
2022/04/01 11:13:38;;;;;;;48.80;8.23;;;;;;;23.88;49.71;99319.48;1673801;85;21115;-62
2022/04/01 11:16:21;;;;;;;44.42;7.65;;;;;;;23.94;49.01;99310.86;1673760;85;21025;-62
2022/04/01 11:19:19;;;;;;;41.13;7.28;;;;;;;24.18;49.86;99303.66;1660113;85;21052;-63
2022/04/01 11:21:49;;;;;;;43.28;7.65;;;;;;;24.27;48.87;99289.89;1673819;84;21569;-62
2022/04/01 11:24:38;;;;;;;37.35;7.55;;;;;;;24.17;48.90;99283.65;1673910;86;21072;-63
2022/04/01 11:27:23;;;;;;;44.88;7.62;;;;;;;24.02;48.94;99287.61;1670797;86;21566;-62
2022/04/01 11:30:09;;;;;;;49.63;8.25;;;;;;;24.02;49.09;99296.80;1560321;91;21597;-62
2022/04/01 11:33:01;;;;;;;46.55;7.97;;;;;;;23.94;48.58;99296.41;1657192;86;21502;-62
2022/04/01 11:35:39;;;;;;;43.48;8.23;;;;;;;23.90;49.34;99287.77;1589592;89;21802;-62
2022/04/01 11:38:27;;;;;;;46.85;8.43;;;;;;;23.89;49.18;99280.90;1693097;84;21060;-61
2022/04/01 11:41:00;;;;;;;47.35;7.72;;;;;;;24.10;49.01;99286.69;1732036;83;21060;-62
2022/04/01 11:43:30;;;;;;;46.48;8.00;;;;;;;24.16;48.55;99306.47;1732300;83;21429;-62
2022/04/01 11:46:06;;;;;;;46.60;8.15;;;;;;;23.97;48.38;99285.54;1662255;86;21070;-61
2022/04/01 11:48:45;;;;;;;38.05;8.20;;;;;;;24.11;48.39;99284.39;1662375;86;21070;-61
2022/04/01 11:51:19;;;;;;;35.95;7.70;;;;;;;24.24;48.56;99267.42;1662434;86;21543;-62
2022/04/01 11:53:53;;;;;;;48.33;8.43;;;;;;;23.99;48.40;99286.17;1662386;86;21114;-61
2022/04/01 11:56:26;;;;;;;42.03;7.80;;;;;;;23.96;48.08;99257.61;1662436;86;21070;-61
2022/04/01 11:59:01;;;;;;;46.23;8.35;;;;;;;24.23;47.84;99269.75;1732018;83;21056;-62
2022/04/01 12:02:21;;;;;;;33.90;7.20;;;;;;;24.13;47.42;99277.94;1705053;83;21017;-62
2022/04/01 12:04:09;;;;;;;37.65;7.72;;;;;;;24.04;47.95;99271.66;1719646;83;21001;-62
2022/04/01 12:09:37;;;;;;;47.25;8.68;;;;;;;24.27;47.71;99258.34;1699510;84;21049;-62